Time;durP1;ratioP1;P1;durP2;ratioP2;P2;SDS_P1;SDS_P2;PMS_P1;PMS_P2;Temp;Humidity;BMP_temperature;BMP_pressure;BME280_temperature;BME280_humidity;BME280_pressure;Samples;Min_cycle;Max_cycle;Signal;HPM_P1;HPM_P2
2021/10/06 00:01:16;;;;;;;6.03;4.40;;;;;;;11.81;100.00;100325.81;5046655;28;20230;-76
2021/10/06 00:03:42;;;;;;;5.73;4.13;;;;;;;11.80;100.00;100327.53;5042791;28;20200;-76
2021/10/06 00:06:09;;;;;;;4.37;3.97;;;;;;;11.81;100.00;100320.59;5043932;28;20205;-76
2021/10/06 00:08:35;;;;;;;4.57;4.00;;;;;;;11.80;100.00;100314.47;5041154;28;20229;-75
2021/10/06 00:11:02;;;;;;;5.17;4.30;;;;;;;11.80;100.00;100321.47;5045527;28;20224;-76
2021/10/06 00:13:28;;;;;;;6.07;4.50;;;;;;;11.82;100.00;100319.66;5046111;28;20779;-76
2021/10/06 00:15:56;;;;;;;5.17;4.33;;;;;;;11.80;100.00;100306.66;5046226;28;20212;-76
2021/10/06 00:18:24;;;;;;;4.87;4.13;;;;;;;11.80;100.00;100304.03;5044883;28;20207;-75
2021/10/06 00:20:50;;;;;;;5.33;4.27;;;;;;;11.82;100.00;100301.38;5047399;28;20317;-76
2021/10/06 00:23:17;;;;;;;5.70;4.20;;;;;;;11.83;100.00;100310.94;5044615;28;20213;-77
2021/10/06 00:25:43;;;;;;;6.40;4.43;;;;;;;11.84;100.00;100320.47;5047041;28;20207;-76
2021/10/06 00:28:09;;;;;;;5.80;4.37;;;;;;;11.84;100.00;100328.31;5043052;28;20602;-77
2021/10/06 00:30:36;;;;;;;5.73;4.40;;;;;;;11.84;100.00;100323.94;5045969;28;20234;-77
2021/10/06 00:33:03;;;;;;;4.93;3.83;;;;;;;11.84;100.00;100323.94;5041943;28;20295;-77
2021/10/06 00:35:30;;;;;;;4.93;4.30;;;;;;;11.84;100.00;100325.69;5048047;28;20205;-77
2021/10/06 00:37:56;;;;;;;7.70;4.10;;;;;;;11.83;100.00;100327.44;5042268;28;20200;-76
2021/10/06 00:40:23;;;;;;;6.07;4.00;;;;;;;11.81;100.00;100331.88;5046337;28;20221;-76
2021/10/06 00:42:49;;;;;;;5.00;4.50;;;;;;;11.80;100.00;100331.94;5040058;28;20206;-75
2021/10/06 00:45:15;;;;;;;5.33;4.33;;;;;;;11.78;100.00;100328.53;5047948;28;20566;-75
2021/10/06 00:47:42;;;;;;;5.33;4.83;;;;;;;11.75;100.00;100334.72;5041391;28;20210;-76
2021/10/06 00:50:10;;;;;;;5.80;4.60;;;;;;;11.71;100.00;100330.50;5045745;28;20223;-75
2021/10/06 00:52:36;;;;;;;6.63;4.23;;;;;;;11.69;100.00;100334.91;5042024;28;20208;-75
2021/10/06 00:55:04;;;;;;;6.60;4.53;;;;;;;11.67;100.00;100328.91;5042178;28;20205;-76
2021/10/06 00:57:30;;;;;;;6.93;3.80;;;;;;;11.62;100.00;100323.00;5039933;28;20445;-76
2021/10/06 00:59:57;;;;;;;6.30;4.50;;;;;;;11.60;100.00;100328.25;5040524;28;20206;-77
2021/10/06 01:02:23;;;;;;;6.50;4.33;;;;;;;11.56;100.00;100330.13;5040832;28;20225;-76
2021/10/06 01:04:50;;;;;;;6.27;4.40;;;;;;;11.54;100.00;100328.50;5045309;28;20207;-77
2021/10/06 01:07:18;;;;;;;4.00;3.60;;;;;;;11.51;100.00;100326.81;5039810;28;20607;-76
2021/10/06 01:09:45;;;;;;;5.27;4.23;;;;;;;11.47;100.00;100322.63;5045797;28;20225;-77
2021/10/06 01:12:12;;;;;;;4.77;3.93;;;;;;;11.47;100.00;100321.78;5039464;28;20230;-76
2021/10/06 01:14:38;;;;;;;4.73;3.97;;;;;;;11.46;100.00;100318.28;5043142;28;20208;-77
2021/10/06 01:17:06;;;;;;;6.67;4.37;;;;;;;11.44;100.00;100330.56;5040707;28;20217;-76
2021/10/06 01:19:32;;;;;;;10.40;4.57;;;;;;;11.42;100.00;100331.53;5047672;28;20217;-76
2021/10/06 01:22:00;;;;;;;5.80;4.20;;;;;;;11.42;100.00;100327.16;5041335;28;20226;-77
2021/10/06 01:24:28;;;;;;;5.80;3.50;;;;;;;11.40;100.00;100334.19;5042434;28;20205;-75
2021/10/06 01:26:55;;;;;;;6.10;3.93;;;;;;;11.38;100.00;100336.00;5039208;28;20857;-76
2021/10/06 01:29:21;;;;;;;6.53;3.70;;;;;;;11.36;100.00;100336.06;5044023;28;20227;-77
2021/10/06 01:31:49;;;;;;;7.73;4.50;;;;;;;11.35;100.00;100336.09;5038758;28;20254;-74
2021/10/06 01:34:17;;;;;;;4.50;3.90;;;;;;;11.34;100.00;100342.22;5040959;28;20224;-75
2021/10/06 01:36:47;;;;;;;5.20;3.80;;;;;;;11.33;100.00;100330.09;5036954;28;20211;-73
2021/10/06 01:39:15;;;;;;;4.30;3.67;;;;;;;11.32;100.00;100328.38;5042075;28;20199;-76
2021/10/06 01:41:43;;;;;;;5.83;4.00;;;;;;;11.31;100.00;100327.53;5036821;28;20656;-75
2021/10/06 01:44:13;;;;;;;5.43;4.20;;;;;;;11.30;100.00;100328.41;5039279;28;20583;-74
2021/10/06 01:46:39;;;;;;;5.97;3.97;;;;;;;11.29;100.00;100333.69;5036557;28;20205;-75
2021/10/06 01:49:06;;;;;;;4.77;3.90;;;;;;;11.25;100.00;100329.47;5042475;28;20754;-76
2021/10/06 01:51:32;;;;;;;5.30;4.03;;;;;;;11.21;100.00;100335.72;5039500;28;20258;-75
2021/10/06 01:54:00;;;;;;;4.20;3.80;;;;;;;11.14;100.00;100330.69;5039228;28;20208;-74
2021/10/06 01:56:28;;;;;;;5.80;4.00;;;;;;;11.09;100.00;100327.38;5035420;28;20230;-75
2021/10/06 01:58:54;;;;;;;5.40;4.23;;;;;;;11.03;100.00;100331.94;5036964;28;20206;-75
2021/10/06 02:01:21;;;;;;;4.33;3.40;;;;;;;11.00;100.00;100327.69;5036567;28;20234;-75
2021/10/06 02:03:47;;;;;;;4.50;3.77;;;;;;;10.95;100.00;100337.41;5040282;28;20203;-75
2021/10/06 02:06:14;;;;;;;4.87;3.83;;;;;;;10.93;100.00;100334.00;5038993;28;20209;-76
2021/10/06 02:08:41;;;;;;;6.40;4.07;;;;;;;10.89;100.00;100332.41;5040452;28;20691;-75
2021/10/06 02:11:07;;;;;;;4.70;3.80;;;;;;;10.86;100.00;100338.56;5041676;28;20227;-74
2021/10/06 02:13:35;;;;;;;4.53;3.67;;;;;;;10.86;100.00;100340.31;5041568;28;20200;-75
2021/10/06 02:16:02;;;;;;;5.57;3.90;;;;;;;10.86;100.00;100346.38;5037593;28;20209;-75
2021/10/06 02:18:28;;;;;;;5.07;4.43;;;;;;;10.87;100.00;100340.28;5040611;28;20218;-76
2021/10/06 02:20:54;;;;;;;6.90;4.67;;;;;;;10.88;100.00;100344.56;5038689;28;20415;-76
2021/10/06 02:23:21;;;;;;;5.33;4.20;;;;;;;10.89;100.00;100343.69;5039627;28;20253;-75
2021/10/06 02:25:47;;;;;;;7.13;4.63;;;;;;;10.91;100.00;100343.63;5037926;28;20391;-75
2021/10/06 02:28:14;;;;;;;6.50;4.23;;;;;;;10.89;100.00;100346.28;5038407;28;20588;-75
2021/10/06 02:30:42;;;;;;;12.03;5.10;;;;;;;10.89;100.00;100354.13;5038157;28;20229;-75
2021/10/06 02:33:09;;;;;;;5.10;4.27;;;;;;;10.89;100.00;100348.06;5038100;28;20203;-76
2021/10/06 02:35:35;;;;;;;5.83;4.80;;;;;;;10.90;100.00;100353.19;5038631;28;20209;-76
2021/10/06 02:38:02;;;;;;;6.17;5.30;;;;;;;10.91;100.00;100360.13;5039037;28;20595;-74
2021/10/06 02:40:28;;;;;;;6.37;4.93;;;;;;;10.94;100.00;100359.16;5041709;28;20232;-75
2021/10/06 02:42:54;;;;;;;7.33;4.93;;;;;;;10.96;100.00;100365.22;5038522;28;20203;-76
2021/10/06 02:45:22;;;;;;;5.93;5.00;;;;;;;11.00;100.00;100374.63;5039204;28;20200;-75
2021/10/06 02:47:49;;;;;;;6.23;5.37;;;;;;;11.01;100.00;100378.09;5039781;28;20210;-74
2021/10/06 02:50:19;;;;;;;9.60;5.83;;;;;;;11.04;100.00;100384.06;5040279;28;20658;-76
2021/10/06 02:52:46;;;;;;;8.20;6.00;;;;;;;11.07;100.00;100380.50;5038172;28;20553;-75
2021/10/06 02:55:12;;;;;;;9.50;6.53;;;;;;;11.14;100.00;100384.63;5038835;28;20715;-74
2021/10/06 02:57:39;;;;;;;10.57;6.10;;;;;;;11.20;100.00;100388.78;5035565;28;20217;-76
2021/10/06 03:00:07;;;;;;;10.87;5.90;;;;;;;11.22;100.00;100398.28;5039008;28;20569;-76
2021/10/06 03:02:34;;;;;;;9.70;6.33;;;;;;;11.25;100.00;100399.94;5039657;28;20201;-75
2021/10/06 03:05:02;;;;;;;9.33;6.90;;;;;;;11.27;100.00;100404.19;5043193;28;20215;-74
2021/10/06 03:07:28;;;;;;;8.60;6.97;;;;;;;11.30;100.00;100406.72;5040573;28;20218;-75
2021/10/06 03:09:54;;;;;;;9.00;6.83;;;;;;;11.31;100.00;100392.78;5040435;28;20226;-76
2021/10/06 03:12:21;;;;;;;8.33;6.90;;;;;;;11.31;100.00;100411.03;5042315;28;20211;-75
2021/10/06 03:14:47;;;;;;;12.83;6.77;;;;;;;11.31;100.00;100421.47;5044341;28;20206;-75
2021/10/06 03:17:13;;;;;;;8.07;6.40;;;;;;;11.31;100.00;100420.59;5039300;28;20206;-75
2021/10/06 03:19:40;;;;;;;9.77;6.27;;;;;;;11.31;100.00;100425.81;5044878;28;20354;-75
2021/10/06 03:22:07;;;;;;;7.97;6.13;;;;;;;11.30;100.00;100418.91;5040565;28;20234;-75
2021/10/06 03:24:34;;;;;;;8.90;6.57;;;;;;;11.30;100.00;100427.59;5045589;28;20579;-75
2021/10/06 03:27:00;;;;;;;9.37;6.50;;;;;;;11.29;100.00;100425.91;5039365;28;20203;-75
2021/10/06 03:29:28;;;;;;;7.70;6.10;;;;;;;11.30;100.00;100432.81;5044489;28;20232;-74
2021/10/06 03:31:54;;;;;;;8.37;6.40;;;;;;;11.30;100.00;100434.56;5040247;28;20223;-75
2021/10/06 03:34:20;;;;;;;10.47;6.33;;;;;;;11.30;100.00;100439.78;5045104;28;20213;-74
2021/10/06 03:36:47;;;;;;;7.80;6.00;;;;;;;11.28;100.00;100432.00;5041186;28;20198;-74
2021/10/06 03:39:15;;;;;;;7.50;5.93;;;;;;;11.32;100.00;100448.44;5040410;28;20195;-75
2021/10/06 03:41:41;;;;;;;8.73;6.43;;;;;;;11.35;100.00;100449.19;5040142;28;20317;-74
2021/10/06 03:44:08;;;;;;;8.67;6.27;;;;;;;11.37;100.00;100451.75;5046443;28;20199;-74
2021/10/06 03:46:35;;;;;;;7.50;5.80;;;;;;;11.41;100.00;100450.72;5041243;28;20212;-75
2021/10/06 03:49:01;;;;;;;8.60;6.20;;;;;;;11.44;100.00;100449.78;5041647;28;20803;-74
2021/10/06 03:51:27;;;;;;;8.57;6.27;;;;;;;11.44;100.00;100461.09;5039761;28;20234;-74
2021/10/06 03:53:54;;;;;;;8.40;5.97;;;;;;;11.46;100.00;100467.09;5043901;28;20200;-75
2021/10/06 03:56:23;;;;;;;6.87;5.53;;;;;;;11.49;100.00;100467.00;5038028;28;20615;-75
2021/10/06 03:58:50;;;;;;;6.87;4.80;;;;;;;11.53;100.00;100467.75;5039875;28;20297;-75
2021/10/06 04:01:17;;;;;;;7.53;5.00;;;;;;;11.56;100.00;100467.66;5035435;28;20223;-76
2021/10/06 04:03:43;;;;;;;6.57;5.00;;;;;;;11.59;100.00;100466.69;5044452;28;20204;-74
2021/10/06 04:06:09;;;;;;;5.77;4.67;;;;;;;11.63;100.00;100479.63;5036819;28;21096;-75
2021/10/06 04:08:36;;;;;;;6.50;4.23;;;;;;;11.65;100.00;100483.03;5043736;28;20745;-75
2021/10/06 04:11:02;;;;;;;4.70;3.90;;;;;;;11.69;100.00;100489.00;5041378;28;20234;-75
2021/10/06 04:13:30;;;;;;;4.67;3.80;;;;;;;11.71;100.00;100502.88;5040859;28;20215;-73
2021/10/06 04:15:56;;;;;;;3.80;3.40;;;;;;;11.70;100.00;100511.63;5035153;28;20199;-74
2021/10/06 04:18:23;;;;;;;5.57;3.60;;;;;;;11.73;100.00;100511.50;5042520;28;20203;-74
2021/10/06 04:20:49;;;;;;;3.70;3.20;;;;;;;11.74;100.00;100513.22;5041968;28;20230;-75
2021/10/06 04:23:15;;;;;;;3.17;2.87;;;;;;;11.74;100.00;100513.22;5040505;28;20205;-77
2021/10/06 04:25:43;;;;;;;3.37;3.00;;;;;;;11.75;100.00;100520.16;5039096;28;20207;-75
2021/10/06 04:28:09;;;;;;;3.20;2.50;;;;;;;11.75;100.00;100515.78;5042541;28;20204;-76
2021/10/06 04:30:37;;;;;;;2.60;2.10;;;;;;;11.80;100.00;100514.75;5036321;28;20229;-75
2021/10/06 04:33:03;;;;;;;2.73;2.50;;;;;;;11.81;100.00;100519.09;5038914;28;20212;-76
2021/10/06 04:35:30;;;;;;;2.50;2.30;;;;;;;11.81;100.00;100516.50;5034603;28;20824;-74
2021/10/06 04:37:56;;;;;;;2.70;2.50;;;;;;;11.81;100.00;100526.94;5039062;28;20216;-74
2021/10/06 04:40:22;;;;;;;3.17;2.13;;;;;;;11.80;100.00;100526.06;5038859;28;20857;-75
2021/10/06 04:42:50;;;;;;;2.80;2.20;;;;;;;11.81;100.00;100525.16;5018257;28;20223;-74
2021/10/06 04:45:16;;;;;;;2.00;1.83;;;;;;;11.79;100.00;100531.34;5038740;28;20215;-74
2021/10/06 04:47:44;;;;;;;2.17;1.97;;;;;;;11.78;100.00;100530.47;5030182;28;20214;-74
2021/10/06 04:50:11;;;;;;;3.30;1.97;;;;;;;11.80;100.00;100538.28;5036642;28;20221;-74
2021/10/06 04:52:39;;;;;;;2.20;1.60;;;;;;;11.78;100.00;100540.94;5040746;28;20495;-74
2021/10/06 04:55:06;;;;;;;2.33;2.03;;;;;;;11.77;100.00;100552.31;5035381;28;20216;-75
2021/10/06 04:57:33;;;;;;;2.83;1.70;;;;;;;11.76;100.00;100550.59;5039350;28;20229;-75
2021/10/06 04:59:59;;;;;;;2.53;1.73;;;;;;;11.77;100.00;100559.25;5035589;28;20206;-74
2021/10/06 05:02:26;;;;;;;1.83;1.60;;;;;;;11.77;100.00;100556.66;5033379;28;20296;-75
2021/10/06 05:04:53;;;;;;;2.63;1.70;;;;;;;11.77;100.00;100570.59;5032587;28;20215;-76
2021/10/06 05:07:20;;;;;;;2.07;1.30;;;;;;;11.77;100.00;100575.81;5033569;28;20206;-74
2021/10/06 05:09:46;;;;;;;1.60;1.50;;;;;;;11.76;100.00;100576.69;5036341;28;21088;-75
2021/10/06 05:12:12;;;;;;;1.70;1.60;;;;;;;11.76;100.00;100584.53;5037345;28;20878;-75
2021/10/06 05:14:39;;;;;;;2.50;1.30;;;;;;;11.76;100.00;100584.53;5039859;28;20209;-75
2021/10/06 05:17:05;;;;;;;1.50;1.20;;;;;;;11.74;100.00;100591.56;5035536;28;20207;-76
2021/10/06 05:19:31;;;;;;;1.40;1.30;;;;;;;11.75;100.00;100595.91;5038202;28;20789;-75
2021/10/06 05:21:59;;;;;;;1.50;1.30;;;;;;;11.75;100.00;100595.91;5038068;28;20330;-74
2021/10/06 05:24:25;;;;;;;1.77;1.50;;;;;;;11.75;100.00;100594.13;5036024;28;20206;-76
2021/10/06 05:26:52;;;;;;;2.97;1.40;;;;;;;11.77;100.00;100606.28;5036964;28;20214;-75
2021/10/06 05:29:20;;;;;;;1.40;1.23;;;;;;;11.77;100.00;100608.88;5037789;28;20651;-75
2021/10/06 05:31:47;;;;;;;2.43;1.40;;;;;;;11.76;100.00;100608.03;5044610;28;20238;-75
2021/10/06 05:34:13;;;;;;;1.43;1.23;;;;;;;11.75;100.00;100616.81;5038102;28;20206;-75
2021/10/06 05:36:40;;;;;;;2.03;1.00;;;;;;;11.75;100.00;100617.66;5038736;28;20581;-75
2021/10/06 05:39:07;;;;;;;1.77;1.30;;;;;;;11.76;100.00;100626.31;5037890;28;20204;-76
2021/10/06 05:41:34;;;;;;;1.40;1.30;;;;;;;11.81;100.00;100631.41;5040153;28;20233;-75
2021/10/06 05:44:00;;;;;;;1.37;1.23;;;;;;;11.84;100.00;100633.94;5039618;28;20209;-74
2021/10/06 05:46:27;;;;;;;2.00;1.20;;;;;;;11.89;100.00;100632.91;5037838;28;20304;-73
2021/10/06 05:48:53;;;;;;;1.30;1.03;;;;;;;11.96;100.00;100637.94;5037282;28;20203;-75
2021/10/06 05:51:20;;;;;;;1.80;1.30;;;;;;;12.00;100.00;100644.81;5038417;28;20231;-74
2021/10/06 05:53:46;;;;;;;3.13;1.20;;;;;;;12.02;100.00;100648.22;5040945;28;20228;-74
2021/10/06 05:56:14;;;;;;;2.83;1.10;;;;;;;12.02;100.00;100649.06;5036601;28;20206;-75
2021/10/06 05:58:40;;;;;;;1.30;1.20;;;;;;;12.03;100.00;100655.13;5039097;28;20204;-76
2021/10/06 06:01:07;;;;;;;1.70;1.17;;;;;;;12.02;100.00;100658.66;5037369;28;20929;-76
2021/10/06 06:03:33;;;;;;;2.40;1.07;;;;;;;12.03;100.00;100662.97;5035358;28;20207;-75
2021/10/06 06:05:59;;;;;;;1.63;0.80;;;;;;;12.02;100.00;100669.97;5038812;28;20689;-76
2021/10/06 06:08:26;;;;;;;2.43;1.00;;;;;;;12.01;100.00;100670.00;5038025;28;20878;-75
2021/10/06 06:10:52;;;;;;;1.17;0.90;;;;;;;11.98;100.00;100676.19;5033789;28;20222;-76
2021/10/06 06:13:20;;;;;;;1.60;1.00;;;;;;;11.99;100.00;100680.50;5042547;28;20212;-76
2021/10/06 06:15:51;;;;;;;2.90;1.00;;;;;;;11.99;100.00;100682.28;5036539;28;20210;-75
2021/10/06 06:18:18;;;;;;;1.90;0.87;;;;;;;11.95;100.00;100693.72;5040705;28;20198;-75
2021/10/06 06:20:44;;;;;;;1.47;1.00;;;;;;;11.96;100.00;100688.47;5033078;28;20224;-76
2021/10/06 06:23:10;;;;;;;1.33;0.70;;;;;;;11.92;100.00;100692.94;5040238;28;20571;-75
2021/10/06 06:25:37;;;;;;;2.10;0.90;;;;;;;11.89;100.00;100695.59;5029947;28;20996;-75
2021/10/06 06:28:04;;;;;;;1.53;0.97;;;;;;;11.90;100.00;100692.09;5039180;28;20210;-74
2021/10/06 06:30:32;;;;;;;1.33;0.70;;;;;;;11.90;100.00;100693.84;5037158;28;20714;-75
2021/10/06 06:32:58;;;;;;;1.90;1.03;;;;;;;11.90;100.00;100702.53;5036782;28;20207;-74
2021/10/06 06:35:25;;;;;;;2.37;0.90;;;;;;;11.88;100.00;100709.53;5039315;28;20210;-75
2021/10/06 06:37:51;;;;;;;0.70;0.70;;;;;;;11.89;100.00;100715.63;5046261;28;20217;-75
2021/10/06 06:40:17;;;;;;;2.37;0.90;;;;;;;11.91;100.00;100714.72;5041134;28;20210;-73
2021/10/06 06:42:44;;;;;;;3.00;0.87;;;;;;;11.96;100.00;100726.78;5044784;28;20213;-76
2021/10/06 06:45:10;;;;;;;2.73;0.80;;;;;;;11.99;100.00;100724.09;5041885;28;20325;-76
2021/10/06 06:47:39;;;;;;;0.97;0.90;;;;;;;12.05;100.00;100736.97;5043367;28;20596;-74
2021/10/06 06:50:07;;;;;;;0.63;0.63;;;;;;;12.13;100.00;100738.41;5037303;28;20237;-76
2021/10/06 06:52:33;;;;;;;1.77;0.90;;;;;;;12.13;100.00;100735.81;5046240;28;20206;-76
2021/10/06 06:55:00;;;;;;;1.27;0.60;;;;;;;12.23;100.00;100743.38;5041003;28;20670;-75
2021/10/06 06:57:26;;;;;;;3.03;0.70;;;;;;;12.26;100.00;100744.16;5043756;28;20213;-75
2021/10/06 06:59:52;;;;;;;2.37;0.80;;;;;;;12.24;100.00;100752.94;5039109;28;20199;-74
2021/10/06 07:02:19;;;;;;;2.73;0.70;;;;;;;12.31;100.00;100751.81;5044422;28;20199;-76
2021/10/06 07:04:46;;;;;;;1.00;0.60;;;;;;;12.28;100.00;100754.56;5040749;28;20218;-73
2021/10/06 07:07:14;;;;;;;0.90;0.80;;;;;;;12.29;100.00;100753.63;5042053;28;20860;-74
2021/10/06 07:09:47;;;;;;;0.80;0.70;;;;;;;12.27;100.00;100751.06;5041703;28;20734;-73
2021/10/06 07:12:14;;;;;;;1.30;0.80;;;;;;;12.23;100.00;100752.06;5044553;28;20212;-75
2021/10/06 07:14:41;;;;;;;1.53;0.80;;;;;;;12.27;100.00;100747.59;5039616;28;20253;-75
2021/10/06 07:17:07;;;;;;;2.33;0.70;;;;;;;12.24;100.00;100750.31;5042961;28;20216;-74
2021/10/06 07:19:33;;;;;;;0.80;0.50;;;;;;;12.29;100.00;100761.47;5038849;28;20219;-76
2021/10/06 07:22:01;;;;;;;3.00;0.80;;;;;;;12.32;100.00;100770.09;5043881;28;20224;-76
2021/10/06 07:24:27;;;;;;;1.53;0.50;;;;;;;12.42;100.00;100764.59;5040423;28;20214;-76
2021/10/06 07:26:54;;;;;;;0.70;0.70;;;;;;;12.56;100.00;100771.97;5044981;28;20300;-75
2021/10/06 07:29:20;;;;;;;0.60;0.57;;;;;;;12.65;100.00;100777.78;5038783;28;20755;-74
2021/10/06 07:31:47;;;;;;;1.77;0.70;;;;;;;12.68;98.44;100779.41;5042726;28;20226;-73
2021/10/06 07:34:14;;;;;;;1.90;0.63;;;;;;;12.75;98.89;100788.81;5039569;28;20740;-76
2021/10/06 07:36:40;;;;;;;0.63;0.63;;;;;;;12.77;95.42;100800.06;5028432;28;20212;-75
2021/10/06 07:39:08;;;;;;;1.87;0.67;;;;;;;12.82;96.53;100789.44;5039535;28;20605;-75
2021/10/06 07:41:34;;;;;;;0.70;0.60;;;;;;;12.87;98.14;100791.03;5044103;28;20309;-75
2021/10/06 07:44:03;;;;;;;1.07;0.90;;;;;;;12.93;98.42;100802.16;5041842;28;20218;-75
2021/10/06 07:46:29;;;;;;;1.20;0.53;;;;;;;12.92;98.06;100800.47;5041188;28;20210;-75
2021/10/06 07:48:56;;;;;;;1.70;0.50;;;;;;;12.92;94.94;100806.56;5038697;28;20203;-75
2021/10/06 07:51:23;;;;;;;1.53;0.50;;;;;;;12.99;95.90;100805.44;5041464;28;20227;-74
2021/10/06 07:53:50;;;;;;;1.07;0.50;;;;;;;12.99;94.92;100808.06;5041909;28;20571;-74
2021/10/06 07:56:18;;;;;;;2.40;0.97;;;;;;;12.97;92.38;100806.41;5041395;28;20231;-75
2021/10/06 07:58:44;;;;;;;2.60;0.83;;;;;;;13.07;92.71;100807.81;5037620;28;20294;-75
2021/10/06 08:01:11;;;;;;;1.67;0.70;;;;;;;13.10;91.37;100818.16;5040317;28;20518;-75
2021/10/06 08:03:37;;;;;;;0.97;0.60;;;;;;;13.20;92.05;100818.72;5041282;28;20678;-75
2021/10/06 08:06:04;;;;;;;1.33;0.73;;;;;;;13.37;92.69;100833.91;5042126;28;20206;-76
2021/10/06 08:08:30;;;;;;;0.50;0.40;;;;;;;13.50;92.21;100835.16;5039620;28;20210;-75
2021/10/06 08:10:59;;;;;;;0.50;0.50;;;;;;;13.65;90.16;100836.41;5038561;28;20239;-75
2021/10/06 08:13:28;;;;;;;1.17;0.67;;;;;;;13.78;91.15;100839.44;5042136;28;20196;-76
2021/10/06 08:15:54;;;;;;;1.70;0.70;;;;;;;13.87;90.40;100841.72;5039815;28;20204;-74
2021/10/06 08:18:21;;;;;;;1.97;0.73;;;;;;;13.92;87.93;100846.81;5041139;28;20199;-76
2021/10/06 08:20:48;;;;;;;0.63;0.60;;;;;;;13.95;86.33;100854.56;5041467;28;20233;-75
2021/10/06 08:23:16;;;;;;;0.50;0.50;;;;;;;14.00;88.03;100852.59;5041360;28;20628;-74
2021/10/06 08:25:43;;;;;;;2.53;0.70;;;;;;;14.04;87.85;100854.22;5040726;28;20380;-75
2021/10/06 08:28:09;;;;;;;2.50;0.70;;;;;;;14.01;86.29;100856.94;5041727;28;20216;-75
2021/10/06 08:30:37;;;;;;;0.53;0.50;;;;;;;13.95;84.19;100851.94;5043655;28;20230;-76
2021/10/06 08:33:04;;;;;;;1.40;0.60;;;;;;;13.83;85.95;100858.47;5043628;28;20200;-76
2021/10/06 08:35:32;;;;;;;0.67;0.50;;;;;;;13.78;85.74;100863.03;5039456;28;20210;-74
2021/10/06 08:38:00;;;;;;;0.83;0.60;;;;;;;13.77;86.68;100863.91;5040337;28;20710;-75
2021/10/06 08:40:26;;;;;;;1.47;0.70;;;;;;;13.67;86.88;100866.03;5038311;28;20334;-76
2021/10/06 08:42:53;;;;;;;2.13;0.73;;;;;;;13.52;85.35;100870.03;5042463;28;20218;-75
2021/10/06 08:45:19;;;;;;;1.50;0.70;;;;;;;13.62;87.23;100874.03;5040915;28;20215;-74
2021/10/06 08:47:48;;;;;;;1.57;0.80;;;;;;;13.69;86.61;100869.44;5038115;28;20548;-75
2021/10/06 08:50:18;;;;;;;1.70;0.77;;;;;;;13.69;84.25;100882.53;5037025;28;20230;-76
2021/10/06 08:52:47;;;;;;;1.53;0.60;;;;;;;13.58;84.64;100882.91;5040022;28;20203;-75
2021/10/06 08:55:13;;;;;;;2.23;0.70;;;;;;;13.49;83.21;100883.25;5037280;28;20230;-74
2021/10/06 08:57:40;;;;;;;1.10;0.97;;;;;;;13.55;86.45;100887.41;5040736;28;20221;-74
2021/10/06 09:00:08;;;;;;;1.37;0.53;;;;;;;13.58;83.91;100906.50;5035729;28;20198;-76
2021/10/06 09:02:39;;;;;;;2.13;0.67;;;;;;;13.66;84.52;100898.38;5043181;28;20207;-74
2021/10/06 09:05:08;;;;;;;1.27;0.70;;;;;;;13.77;85.71;100903.22;5036594;28;20211;-74
2021/10/06 09:07:54;;;;;;;3.53;0.70;;;;;;;13.77;83.75;100911.97;5041081;28;20814;-75
2021/10/06 09:10:21;;;;;;;1.50;0.63;;;;;;;13.99;83.77;100919.91;5037987;28;20866;-75
2021/10/06 09:12:55;;;;;;;3.30;0.87;;;;;;;14.04;81.81;100927.63;5040186;28;20199;-75
2021/10/06 09:15:21;;;;;;;1.70;0.63;;;;;;;14.08;82.88;100923.97;5038087;28;20199;-75
2021/10/06 09:17:52;;;;;;;0.80;0.60;;;;;;;14.09;81.59;100927.44;5040901;28;20231;-74
2021/10/06 09:20:20;;;;;;;2.40;0.80;;;;;;;14.18;82.68;100927.97;5036263;28;20215;-75
2021/10/06 09:23:00;;;;;;;1.57;0.77;;;;;;;14.39;79.24;100935.97;5040844;28;20594;-75
2021/10/06 09:25:36;;;;;;;1.13;0.60;;;;;;;14.61;78.60;100932.56;5040489;28;20199;-75
2021/10/06 09:28:05;;;;;;;1.10;0.60;;;;;;;14.55;79.47;100926.63;5039364;28;20252;-73
2021/10/06 09:30:32;;;;;;;0.70;0.60;;;;;;;14.54;81.35;100921.41;5037678;28;20233;-75
2021/10/06 09:33:00;;;;;;;1.40;0.63;;;;;;;14.43;80.08;100937.56;5038198;28;20211;-75
2021/10/06 09:35:28;;;;;;;2.37;1.00;;;;;;;14.34;79.03;100932.66;5038510;28;20213;-76
2021/10/06 09:37:56;;;;;;;1.90;0.77;;;;;;;14.37;80.47;100929.91;5040333;28;20212;-75
2021/10/06 09:40:26;;;;;;;1.43;0.60;;;;;;;14.37;80.35;100932.53;5041566;28;20225;-74
2021/10/06 09:42:53;;;;;;;0.70;0.60;;;;;;;14.45;79.60;100934.91;5037117;28;20208;-75
2021/10/06 09:45:22;;;;;;;2.23;0.90;;;;;;;14.48;81.46;100945.28;5042017;28;20231;-76
2021/10/06 09:48:09;;;;;;;0.93;0.60;;;;;;;14.40;80.38;100945.53;5034992;28;20844;-76
2021/10/06 09:50:40;;;;;;;2.27;0.90;;;;;;;14.35;81.18;100940.50;5039683;28;20227;-74
2021/10/06 09:53:09;;;;;;;1.77;0.70;;;;;;;14.35;80.00;100943.09;5035712;28;20212;-75
2021/10/06 09:55:36;;;;;;;1.50;0.80;;;;;;;14.39;80.96;100942.06;5042382;28;20216;-74
2021/10/06 09:58:03;;;;;;;1.27;0.63;;;;;;;14.48;81.75;100940.88;5033210;28;20209;-76
2021/10/06 10:00:30;;;;;;;2.80;0.73;;;;;;;14.45;79.45;100954.09;5040040;28;20229;-75
2021/10/06 10:02:57;;;;;;;2.63;0.83;;;;;;;14.45;79.46;100954.09;5035709;28;20686;-75
2021/10/06 10:05:24;;;;;;;1.20;0.90;;;;;;;14.42;78.75;100958.59;5042623;28;20261;-73
2021/10/06 10:07:53;;;;;;;3.33;0.60;;;;;;;14.48;77.41;100958.41;5037546;28;20753;-74
2021/10/06 10:10:20;;;;;;;2.93;0.80;;;;;;;14.58;78.12;100959.78;5037582;28;20284;-75
2021/10/06 10:12:48;;;;;;;1.37;0.90;;;;;;;14.70;77.73;100961.09;5036319;28;20726;-74
2021/10/06 10:15:16;;;;;;;0.90;0.73;;;;;;;14.74;77.29;100963.53;5041763;28;20197;-72
2021/10/06 10:17:42;;;;;;;0.93;0.80;;;;;;;14.95;78.51;100960.97;5034546;28;20220;-74
2021/10/06 10:20:11;;;;;;;0.70;0.60;;;;;;;15.16;75.97;100967.16;5043057;28;20322;-73
2021/10/06 10:22:43;;;;;;;2.13;0.80;;;;;;;15.41;75.88;100971.44;5037308;28;20288;-75
2021/10/06 10:25:21;;;;;;;0.90;0.50;;;;;;;15.60;75.14;100976.78;5042872;28;20648;-75
2021/10/06 10:28:00;;;;;;;1.67;0.67;;;;;;;15.58;74.73;100976.84;5041794;28;20203;-74
2021/10/06 10:30:26;;;;;;;0.50;0.40;;;;;;;15.62;74.69;100974.94;5043863;28;20226;-77
2021/10/06 10:32:53;;;;;;;1.27;0.70;;;;;;;15.61;73.58;100983.78;5039355;28;20223;-73
2021/10/06 10:35:32;;;;;;;1.50;0.70;;;;;;;15.56;73.92;100977.84;5039026;28;20208;-75
2021/10/06 10:38:10;;;;;;;0.90;0.80;;;;;;;15.63;75.78;100976.66;5035067;28;20217;-75
2021/10/06 10:40:45;;;;;;;1.37;0.70;;;;;;;15.64;75.93;100976.59;5037923;28;20325;-73
2021/10/06 10:43:14;;;;;;;2.10;0.70;;;;;;;15.63;76.22;100977.50;5039948;28;20288;-75
2021/10/06 10:45:43;;;;;;;0.73;0.47;;;;;;;15.47;72.89;100981.72;5037800;28;20214;-74
2021/10/06 10:48:11;;;;;;;1.80;0.70;;;;;;;15.45;73.79;100981.75;5037818;28;20203;-74
2021/10/06 10:51:06;;;;;;;1.73;0.77;;;;;;;15.52;75.83;100977.97;5036299;28;20306;-74
2021/10/06 10:53:57;;;;;;;0.70;0.70;;;;;;;15.61;73.94;100978.50;5040739;28;20206;-73
2021/10/06 10:56:25;;;;;;;0.50;0.50;;;;;;;15.59;72.60;100981.19;5038825;28;20449;-73
2021/10/06 10:59:04;;;;;;;2.00;0.60;;;;;;;15.75;75.82;100970.09;5036437;28;20210;-74
2021/10/06 11:01:39;;;;;;;1.03;0.60;;;;;;;15.74;74.69;100981.47;5037212;28;20230;-73
2021/10/06 11:04:11;;;;;;;2.37;0.70;;;;;;;15.83;74.58;100983.75;5041319;28;20728;-75
2021/10/06 11:06:41;;;;;;;1.57;0.90;;;;;;;15.90;73.46;100982.59;5036046;28;20207;-75
2021/10/06 11:09:40;;;;;;;1.30;0.70;;;;;;;16.06;74.28;100986.25;5040373;28;20215;-73
2021/10/06 11:12:43;;;;;;;2.03;0.60;;;;;;;16.19;71.74;100988.34;5038924;28;20218;-74
2021/10/06 11:15:29;;;;;;;0.90;0.50;;;;;;;16.14;71.47;100992.97;5034381;28;20217;-73
2021/10/06 11:18:27;;;;;;;0.67;0.63;;;;;;;16.25;70.28;100999.47;5037420;28;20294;-75
2021/10/06 11:20:59;;;;;;;0.80;0.80;;;;;;;16.34;73.87;100989.44;5033803;28;20223;-75
2021/10/06 11:23:45;;;;;;;1.43;0.80;;;;;;;16.39;71.58;100990.97;5040713;28;20280;-73